| time (UTC) | temp C | wind direction | speed KPH | gust KPH | rain 1hr cm | rain 24hr cm | rain mn cm | humidity % | barometer mb |
| 20260902193009 | 18 | 255 | 16.1 | 22.5 | 0.00 | 0.00 | 0.00 | 72 | 1004.7 |
| 20260902192508 | 20 | 262 | 14.5 | 24.1 | 0.00 | 0.00 | 0.00 | 65 | 1004.8 |
| 20260902192007 | 20 | 204 | 24.1 | 32.2 | 0.00 | 0.00 | 0.00 | 59 | 1004.5 |
| 20260902191503 | 20 | 199 | 14.5 | 16.1 | 0.00 | 0.00 | 0.00 | 59 | 1004.6 |
| 20260902190957 | 20 | 236 | 17.7 | 20.9 | 0.00 | 0.00 | 0.00 | 59 | 1004.5 |
| 20260902190452 | 20 | 258 | 14.5 | 17.7 | 0.00 | 0.00 | 0.00 | 61 | 1004.5 |
| 20260902185948 | 20 | 207 | 16.1 | 17.7 | 0.00 | 0.00 | 0.00 | 60 | 1004.8 |
| 20260902185444 | 20 | 119 | 8.0 | 9.7 | 0.00 | 0.00 | 0.00 | 62 | 1004.6 |
| 20260902184939 | 20 | 168 | 12.9 | 16.1 | 0.00 | 0.00 | 0.00 | 63 | 1004.6 |
| 20260902184434 | 20 | 213 | 4.8 | 8.0 | 0.00 | 0.00 | 0.00 | 62 | 1004.6 |
| 20260902183930 | 20 | 168 | 12.9 | 17.7 | 0.00 | 0.00 | 0.00 | 62 | 1005.1 |
| 20260902183426 | 19 | 197 | 11.3 | 12.9 | 0.00 | 0.00 | 0.00 | 64 | 1004.6 |
| 20260902182921 | 18 | 204 | 12.9 | 16.1 | 0.00 | 0.00 | 0.00 | 64 | 1004.9 |
| 20260902182417 | 18 | 157 | 9.7 | 11.3 | 0.00 | 0.00 | 0.00 | 66 | 1005.1 |
| 20260902181913 | 18 | 163 | 8.0 | 9.7 | 0.00 | 0.00 | 0.00 | 67 | 1005.0 |
| 20260902181409 | 18 | 161 | 8.0 | 9.7 | 0.00 | 0.00 | 0.00 | 67 | 1005.0 |
| 20260902180903 | 18 | 155 | 0.0 | 0.0 | 0.00 | 0.00 | 0.00 | 68 | 1005.0 |
| 20260902180358 | 18 | 210 | 6.4 | 9.7 | 0.00 | 0.00 | 0.00 | 66 | 1005.3 |
| 20260902175854 | 18 | 193 | 3.2 | 3.2 | 0.00 | 0.00 | 0.00 | 65 | 1005.2 |
| 20260902175349 | 19 | 234 | 3.2 | 4.8 | 0.00 | 0.00 | 0.00 | 65 | 1005.4 |
| 20260902174844 | 19 | 188 | 4.8 | 9.7 | 0.00 | 0.00 | 0.00 | 64 | 1005.4 |
| 20260902174341 | 18 | 174 | 12.9 | 14.5 | 0.00 | 0.00 | 0.00 | 64 | 1005.4 |
| 20260902173831 | 18 | 207 | 8.0 | 9.7 | 0.00 | 0.00 | 0.00 | 65 | 1005.5 |
| 20260902173331 | 18 | 186 | 8.0 | 11.3 | 0.00 | 0.00 | 0.00 | 66 | 1005.2 |
| 20260902172831 | 18 | 165 | 8.0 | 9.7 | 0.00 | 0.00 | 0.00 | 66 | 1005.4 |
| 20260902172325 | 18 | 190 | 6.4 | 8.0 | 0.00 | 0.00 | 0.00 | 68 | 1005.5 |
| 20260902171820 | 18 | 144 | 8.0 | 9.7 | 0.00 | 0.00 | 0.00 | 68 | 1005.6 |
| 20260902171315 | 18 | 225 | 6.4 | 8.0 | 0.00 | 0.00 | 0.00 | 69 | 1005.6 |
| 20260902170806 | 18 | 174 | 8.0 | 9.7 | 0.00 | 0.00 | 0.00 | 69 | 1005.4 |
| 20260902170300 | 18 | 166 | 6.4 | 8.0 | 0.00 | 0.00 | 0.00 | 69 | 1005.7 |
| 20260902165756 | 18 | 147 | 8.0 | 9.7 | 0.00 | 0.00 | 0.00 | 69 | 1005.8 |
| 20260902165250 | 18 | 221 | 6.4 | 8.0 | 0.00 | 0.00 | 0.00 | 70 | 1005.9 |
| 20260902164745 | 18 | 148 | 8.0 | 9.7 | 0.00 | 0.00 | 0.00 | 71 | 1006.0 |
| 20260902164244 | 17 | 193 | 6.4 | 9.7 | 0.00 | 0.00 | 0.00 | 72 | 1005.9 |
| 20260902163739 | 17 | 208 | 6.4 | 9.7 | 0.00 | 0.00 | 0.00 | 73 | 1006.0 |
| 20260902163233 | 17 | 225 | 6.4 | 8.0 | 0.00 | 0.00 | 0.00 | 74 | 1006.1 |
| 20260902162732 | 17 | 156 | 8.0 | 11.3 | 0.00 | 0.00 | 0.00 | 73 | 1006.0 |
| 20260902162226 | 17 | 205 | 0.0 | 0.0 | 0.00 | 0.00 | 0.00 | 74 | 1006.1 |
| 20260902161722 | 17 | 192 | 8.0 | 12.9 | 0.00 | 0.00 | 0.00 | 75 | 1006.2 |
| 20260902161217 | 17 | 190 | 12.9 | 14.5 | 0.00 | 0.00 | 0.00 | 75 | 1006.2 |
| 20260902160715 | 17 | 176 | 12.9 | 14.5 | 0.00 | 0.00 | 0.00 | 74 | 1006.2 |
| 20260902160208 | 17 | 115 | 11.3 | 14.5 | 0.00 | 0.00 | 0.00 | 75 | 1006.2 |
| 20260902155706 | 17 | 139 | 6.4 | 9.7 | 0.00 | 0.00 | 0.00 | 75 | 1006.3 |
| 20260902155205 | 18 | 171 | 8.0 | 11.3 | 0.00 | 0.00 | 0.00 | 74 | 1006.5 |
| 20260902154701 | 18 | 212 | 8.0 | 9.7 | 0.00 | 0.00 | 0.00 | 73 | 1006.2 |
| 20260902154200 | 17 | 194 | 1.6 | 3.2 | 0.00 | 0.00 | 0.00 | 73 | 1006.3 |
| 20260902153655 | 17 | 149 | 6.4 | 11.3 | 0.00 | 0.00 | 0.00 | 76 | 1006.8 |
| 20260902153150 | 17 | 135 | 8.0 | 11.3 | 0.00 | 0.00 | 0.00 | 77 | 1006.7 |
| 20260902152646 | 17 | 168 | 12.9 | 17.7 | 0.00 | 0.00 | 0.00 | 76 | 1006.7 |
| 20260902152141 | 17 | 206 | 8.0 | 11.3 | 0.00 | 0.00 | 0.00 | 77 | 1006.7 |
| 20260902151636 | 17 | 187 | 4.8 | 4.8 | 0.00 | 0.00 | 0.00 | 78 | 1006.9 |
| 20260902151137 | 16 | 145 | 6.4 | 8.0 | 0.00 | 0.00 | 0.00 | 79 | 1006.9 |
| 20260902150632 | 16 | 138 | 6.4 | 8.0 | 0.00 | 0.00 | 0.00 | 80 | 1006.8 |
| 20260902150127 | 16 | 163 | 6.4 | 8.0 | 0.00 | 0.00 | 0.00 | 82 | 1007.2 |
| 20260902145622 | 16 | 209 | 8.0 | 11.3 | 0.00 | 0.00 | 0.00 | 83 | 1007.0 |
| 20260902145121 | 16 | 167 | 1.6 | 3.2 | 0.00 | 0.00 | 0.00 | 83 | 1007.0 |
| 20260902144618 | 16 | 122 | 11.3 | 14.5 | 0.00 | 0.00 | 0.00 | 83 | 1007.3 |
| 20260902144118 | 16 | 156 | 4.8 | 8.0 | 0.00 | 0.00 | 0.00 | 82 | 1007.3 |
| 20260902143613 | 16 | 133 | 8.0 | 9.7 | 0.00 | 0.00 | 0.00 | 82 | 1007.2 |
| 20260902143108 | 16 | 210 | 4.8 | 4.8 | 0.00 | 0.00 | 0.00 | 83 | 1007.4 |
| 20260902142605 | 16 | 174 | 11.3 | 11.3 | 0.00 | 0.00 | 0.00 | 83 | 1007.1 |
| 20260902142100 | 15 | 182 | 8.0 | 9.7 | 0.00 | 0.00 | 0.00 | 83 | 1007.3 |
| 20260902141600 | 15 | 193 | 4.8 | 4.8 | 0.00 | 0.00 | 0.00 | 83 | 1007.3 |
| 20260902141055 | 15 | 210 | 3.2 | 4.8 | 0.00 | 0.00 | 0.00 | 84 | 1007.3 |
| 20260902140549 | 15 | 203 | 4.8 | 4.8 | 0.00 | 0.00 | 0.00 | 84 | 1007.4 |
| 20260902140046 | 15 | 197 | 6.4 | 9.7 | 0.00 | 0.00 | 0.00 | 84 | 1007.2 |
| 20260902135544 | 15 | 218 | 1.6 | 3.2 | 0.00 | 0.00 | 0.00 | 84 | 1007.3 |
| 20260902135039 | 15 | 204 | 3.2 | 3.2 | 0.00 | 0.00 | 0.00 | 84 | 1007.3 |
| 20260902134535 | 15 | 191 | 11.3 | 11.3 | 0.00 | 0.00 | 0.00 | 84 | 1007.4 |
| 20260902134035 | 15 | 198 | 11.3 | 12.9 | 0.00 | 0.00 | 0.00 | 84 | 1007.5 |
| 20260902133529 | 15 | 224 | 6.4 | 8.0 | 0.00 | 0.00 | 0.00 | 84 | 1007.4 |
| 20260902133024 | 15 | 177 | 11.3 | 12.9 | 0.00 | 0.00 | 0.00 | 84 | 1007.5 |
| 20260902132519 | 15 | 167 | 8.0 | 9.7 | 0.00 | 0.00 | 0.00 | 84 | 1007.4 |
| 20260902132015 | 15 | 197 | 4.8 | 4.8 | 0.00 | 0.00 | 0.00 | 84 | 1007.3 |
| 20260902131511 | 16 | 201 | 11.3 | 11.3 | 0.00 | 0.00 | 0.00 | 84 | 1007.4 |
| 20260902131010 | 16 | 196 | 8.0 | 9.7 | 0.00 | 0.00 | 0.00 | 83 | 1007.4 |
| 20260902130507 | 16 | 176 | 4.8 | 4.8 | 0.00 | 0.00 | 0.00 | 83 | 1007.5 |
| 20260902130002 | 16 | 210 | 9.7 | 12.9 | 0.00 | 0.00 | 0.00 | 83 | 1007.6 |
| 20260902125457 | 16 | 173 | 6.4 | 8.0 | 0.00 | 0.00 | 0.00 | 83 | 1007.6 |
| 20260902124953 | 16 | 205 | 8.0 | 9.7 | 0.00 | 0.00 | 0.00 | 83 | 1007.5 |
| 20260902124449 | 16 | 192 | 11.3 | 12.9 | 0.00 | 0.00 | 0.00 | 83 | 1007.8 |
| 20260902123944 | 16 | 201 | 4.8 | 4.8 | 0.00 | 0.00 | 0.00 | 83 | 1007.8 |
| 20260902123440 | 16 | 177 | 8.0 | 9.7 | 0.00 | 0.00 | 0.00 | 84 | 1007.6 |
| 20260902122938 | 15 | 200 | 9.7 | 12.9 | 0.00 | 0.00 | 0.00 | 84 | 1007.8 |
| 20260902122434 | 15 | 171 | 3.2 | 3.2 | 0.00 | 0.00 | 0.00 | 85 | 1007.8 |
| 20260902121930 | 15 | 193 | 9.7 | 11.3 | 0.00 | 0.00 | 0.00 | 85 | 1007.7 |
| 20260902121425 | 15 | 219 | 6.4 | 8.0 | 0.00 | 0.00 | 0.00 | 85 | 1007.9 |
| 20260902120925 | 15 | 209 | 8.0 | 9.7 | 0.00 | 0.00 | 0.00 | 85 | 1007.8 |
| 20260902120421 | 16 | 258 | 4.8 | 4.8 | 0.00 | 0.00 | 0.00 | 85 | 1007.8 |
| 20260902115920 | 16 | 228 | 3.2 | 4.8 | 0.00 | 0.00 | 0.00 | 85 | 1008.0 |
| 20260902115417 | 16 | 197 | 11.3 | 12.9 | 0.00 | 0.00 | 0.00 | 85 | 1007.9 |
| 20260902114913 | 15 | 210 | 6.4 | 9.7 | 0.00 | 0.00 | 0.00 | 85 | 1008.0 |
| 20260902114409 | 15 | 179 | 12.9 | 14.5 | 0.00 | 0.00 | 0.00 | 85 | 1007.8 |
| 20260902113903 | 16 | 208 | 14.5 | 16.1 | 0.00 | 0.00 | 0.00 | 85 | 1008.1 |
| 20260902113359 | 16 | 177 | 6.4 | 8.0 | 0.00 | 0.00 | 0.00 | 85 | 1008.0 |
| 20260902112858 | 16 | 200 | 6.4 | 8.0 | 0.00 | 0.00 | 0.00 | 85 | 1008.1 |
| 20260902112355 | 16 | 187 | 12.9 | 14.5 | 0.00 | 0.00 | 0.00 | 85 | 1008.1 |
| 20260902111850 | 16 | 169 | 11.3 | 14.5 | 0.00 | 0.00 | 0.00 | 85 | 1008.3 |
| 20260902111347 | 16 | 236 | 1.6 | 1.6 | 0.00 | 0.00 | 0.00 | 85 | 1008.3 |
| 20260902110842 | 16 | 188 | 11.3 | 17.7 | 0.00 | 0.00 | 0.00 | 86 | 1008.3 |
| 20260902110338 | 15 | 210 | 11.3 | 11.3 | 0.00 | 0.00 | 0.00 | 86 | 1008.1 |
| 20260902105837 | 15 | 238 | 6.4 | 9.7 | 0.00 | 0.00 | 0.00 | 86 | 1008.3 |
| 20260902105332 | 15 | 185 | 8.0 | 9.7 | 0.00 | 0.00 | 0.00 | 87 | 1008.2 |
| 20260902104827 | 15 | 234 | 6.4 | 8.0 | 0.00 | 0.00 | 0.00 | 87 | 1008.4 |
| 20260902104324 | 15 | 198 | 1.6 | 3.2 | 0.00 | 0.00 | 0.00 | 87 | 1008.3 |
| 20260902103823 | 15 | 222 | 8.0 | 9.7 | 0.00 | 0.00 | 0.00 | 87 | 1008.4 |
| 20260902103318 | 15 | 189 | 6.4 | 8.0 | 0.00 | 0.00 | 0.00 | 88 | 1008.7 |
| 20260902102813 | 15 | 206 | 9.7 | 16.1 | 0.00 | 0.00 | 0.00 | 88 | 1008.5 |
| 20260902102308 | 15 | 184 | 8.0 | 9.7 | 0.00 | 0.00 | 0.00 | 88 | 1008.5 |
| 20260902101801 | 15 | 185 | 9.7 | 11.3 | 0.00 | 0.00 | 0.00 | 88 | 1008.6 |
| 20260902101301 | 15 | 174 | 11.3 | 12.9 | 0.00 | 0.00 | 0.00 | 88 | 1008.5 |
| 20260902100755 | 15 | 216 | 9.7 | 12.9 | 0.00 | 0.00 | 0.00 | 88 | 1008.8 |
| 20260902100255 | 15 | 196 | 12.9 | 14.5 | 0.00 | 0.00 | 0.00 | 88 | 1008.5 |
| 20260902095749 | 15 | 182 | 6.4 | 8.0 | 0.00 | 0.00 | 0.00 | 88 | 1008.6 |
| 20260902095244 | 15 | 172 | 16.1 | 17.7 | 0.00 | 0.00 | 0.00 | 88 | 1008.6 |
| 20260902094738 | 15 | 201 | 14.5 | 20.9 | 0.00 | 0.00 | 0.00 | 88 | 1008.7 |
| 20260902094235 | 15 | 198 | 14.5 | 17.7 | 0.00 | 0.00 | 0.00 | 88 | 1008.5 |
| 20260902093734 | 15 | 201 | 6.4 | 9.7 | 0.00 | 0.00 | 0.00 | 88 | 1008.6 |
| 20260902093229 | 15 | 222 | 6.4 | 9.7 | 0.00 | 0.00 | 0.00 | 87 | 1008.5 |
| 20260902092729 | 15 | 188 | 6.4 | 8.0 | 0.00 | 0.00 | 0.00 | 88 | 1008.8 |
| 20260902092224 | 15 | 155 | 8.0 | 9.7 | 0.00 | 0.00 | 0.00 | 87 | 1008.7 |
| 20260902091723 | 16 | 198 | 9.7 | 11.3 | 0.00 | 0.00 | 0.00 | 87 | 1008.8 |
| 20260902091220 | 16 | 171 | 4.8 | 4.8 | 0.00 | 0.00 | 0.00 | 87 | 1008.8 |
| 20260902090716 | 16 | 180 | 12.9 | 14.5 | 0.00 | 0.00 | 0.00 | 87 | 1008.9 |
| 20260902090215 | 16 | 191 | 9.7 | 12.9 | 0.00 | 0.00 | 0.00 | 87 | 1009.1 |
| 20260902085709 | 16 | 193 | 6.4 | 9.7 | 0.00 | 0.00 | 0.00 | 87 | 1008.8 |
| 20260902085204 | 16 | 191 | 3.2 | 8.0 | 0.00 | 0.00 | 0.00 | 86 | 1008.9 |
| 20260902084655 | 16 | 186 | 8.0 | 11.3 | 0.00 | 0.00 | 0.00 | 86 | 1009.4 |
| 20260902084151 | 16 | 191 | 11.3 | 16.1 | 0.00 | 0.00 | 0.00 | 86 | 1009.4 |
| 20260902083646 | 16 | 208 | 3.2 | 3.2 | 0.00 | 0.00 | 0.00 | 86 | 1009.2 |
| 20260902083145 | 16 | 185 | 9.7 | 11.3 | 0.00 | 0.00 | 0.00 | 86 | 1009.4 |
| 20260902082641 | 16 | 199 | 11.3 | 12.9 | 0.00 | 0.00 | 0.00 | 86 | 1009.2 |
| 20260902082137 | 16 | 199 | 12.9 | 14.5 | 0.00 | 0.00 | 0.00 | 86 | 1009.3 |
| 20260902081633 | 16 | 204 | 12.9 | 14.5 | 0.00 | 0.00 | 0.00 | 86 | 1009.1 |
| 20260902081128 | 16 | 208 | 8.0 | 9.7 | 0.00 | 0.00 | 0.00 | 87 | 1009.4 |
| 20260902080623 | 16 | 202 | 4.8 | 8.0 | 0.00 | 0.00 | 0.00 | 86 | 1009.5 |
| 20260902080120 | 16 | 178 | 9.7 | 11.3 | 0.00 | 0.00 | 0.00 | 86 | 1009.5 |
| 20260902075619 | 16 | 194 | 8.0 | 11.3 | 0.00 | 0.00 | 0.00 | 86 | 1009.4 |
| 20260902075116 | 16 | 194 | 6.4 | 8.0 | 0.00 | 0.00 | 0.00 | 85 | 1009.4 |
| 20260902074611 | 16 | 207 | 8.0 | 9.7 | 0.00 | 0.00 | 0.00 | 83 | 1009.5 |
| 20260902074106 | 16 | 195 | 16.1 | 16.1 | 0.00 | 0.00 | 0.00 | 82 | 1009.5 |
| 20260902073601 | 16 | 175 | 11.3 | 14.5 | 0.00 | 0.00 | 0.00 | 81 | 1009.5 |
| 20260902073058 | 16 | 223 | 4.8 | 4.8 | 0.00 | 0.00 | 0.00 | 81 | 1009.6 |
| 20260902072553 | 16 | 160 | 11.3 | 14.5 | 0.00 | 0.00 | 0.00 | 80 | 1009.4 |
| 20260902072050 | 16 | 186 | 14.5 | 16.1 | 0.00 | 0.00 | 0.00 | 79 | 1009.5 |
| 20260902071549 | 16 | 192 | 16.1 | 17.7 | 0.00 | 0.00 | 0.00 | 79 | 1009.6 |
| 20260902071045 | 16 | 222 | 11.3 | 14.5 | 0.00 | 0.00 | 0.00 | 79 | 1009.7 |
| 20260902070540 | 16 | 193 | 9.7 | 14.5 | 0.00 | 0.00 | 0.00 | 79 | 1009.5 |
| 20260902070035 | 16 | 210 | 6.4 | 8.0 | 0.00 | 0.00 | 0.00 | 79 | 1009.8 |
| 20260902065529 | 16 | 195 | 9.7 | 12.9 | 0.00 | 0.00 | 0.00 | 79 | 1009.5 |
| 20260902065024 | 16 | 177 | 12.9 | 17.7 | 0.00 | 0.00 | 0.00 | 79 | 1009.5 |
| 20260902064521 | 16 | 202 | 8.0 | 11.3 | 0.00 | 0.00 | 0.00 | 80 | 1009.7 |
| 20260902064016 | 16 | 193 | 14.5 | 14.5 | 0.00 | 0.00 | 0.00 | 81 | 1009.6 |
| 20260902063515 | 16 | 155 | 6.4 | 8.0 | 0.00 | 0.00 | 0.00 | 81 | 1009.6 |
| 20260902063011 | 16 | 207 | 9.7 | 12.9 | 0.00 | 0.00 | 0.00 | 81 | 1009.8 |
| 20260902062509 | 16 | 239 | 8.0 | 9.7 | 0.00 | 0.00 | 0.00 | 81 | 1009.7 |
| 20260902062005 | 16 | 184 | 6.4 | 12.9 | 0.00 | 0.00 | 0.00 | 81 | 1009.7 |
| 20260902061459 | 16 | 182 | 12.9 | 17.7 | 0.00 | 0.00 | 0.00 | 81 | 1009.6 |
| 20260902060955 | 16 | 256 | 4.8 | 8.0 | 0.00 | 0.00 | 0.00 | 81 | 1009.6 |
| 20260902060451 | 16 | 206 | 8.0 | 14.5 | 0.00 | 0.00 | 0.00 | 82 | 1009.7 |
| 20260902055947 | 16 | 185 | 4.8 | 9.7 | 0.00 | 0.00 | 0.00 | 82 | 1009.5 |
| 20260902055443 | 16 | 185 | 14.5 | 16.1 | 0.00 | 0.00 | 0.00 | 82 | 1009.7 |
| 20260902054938 | 16 | 187 | 11.3 | 14.5 | 0.00 | 0.00 | 0.00 | 83 | 1010.0 |
| 20260902054433 | 16 | 200 | 6.4 | 9.7 | 0.00 | 0.00 | 0.00 | 83 | 1009.9 |
| 20260902053928 | 16 | 201 | 14.5 | 20.9 | 0.00 | 0.00 | 0.00 | 83 | 1009.6 |
| 20260902053424 | 16 | 219 | 11.3 | 16.1 | 0.00 | 0.00 | 0.00 | 83 | 1010.0 |
| 20260902052923 | 16 | 171 | 19.3 | 22.5 | 0.00 | 0.00 | 0.00 | 83 | 1009.8 |
| 20260902052418 | 16 | 200 | 9.7 | 12.9 | 0.00 | 0.00 | 0.00 | 83 | 1009.7 |
| 20260902051914 | 16 | 194 | 11.3 | 12.9 | 0.00 | 0.00 | 0.00 | 84 | 1009.9 |
| 20260902051414 | 16 | 180 | 11.3 | 14.5 | 0.00 | 0.00 | 0.00 | 84 | 1009.8 |
| 20260902050913 | 16 | 199 | 8.0 | 9.7 | 0.00 | 0.00 | 0.00 | 84 | 1009.7 |
| 20260902050413 | 16 | 211 | 9.7 | 12.9 | 0.00 | 0.00 | 0.00 | 84 | 1009.8 |
| 20260902045908 | 16 | 200 | 12.9 | 16.1 | 0.00 | 0.00 | 0.00 | 84 | 1009.8 |
| 20260902045403 | 16 | 182 | 11.3 | 14.5 | 0.00 | 0.00 | 0.00 | 84 | 1009.8 |
| 20260902044859 | 16 | 233 | 11.3 | 16.1 | 0.00 | 0.00 | 0.00 | 84 | 1009.9 |
| 20260902044354 | 16 | 181 | 8.0 | 11.3 | 0.00 | 0.00 | 0.00 | 84 | 1009.9 |
| 20260902043849 | 16 | 193 | 14.5 | 16.1 | 0.00 | 0.00 | 0.00 | 84 | 1009.8 |
| 20260902043344 | 16 | 230 | 11.3 | 14.5 | 0.00 | 0.00 | 0.00 | 84 | 1009.8 |
| 20260902042839 | 16 | 245 | 6.4 | 9.7 | 0.00 | 0.00 | 0.00 | 84 | 1009.9 |
| 20260902042338 | 16 | 194 | 14.5 | 17.7 | 0.00 | 0.00 | 0.00 | 84 | 1010.0 |
| 20260902041834 | 16 | 207 | 8.0 | 14.5 | 0.00 | 0.00 | 0.00 | 83 | 1009.8 |
| 20260902041334 | 17 | 193 | 9.7 | 12.9 | 0.00 | 0.00 | 0.00 | 83 | 1009.7 |
| 20260902040832 | 17 | 189 | 17.7 | 24.1 | 0.00 | 0.00 | 0.00 | 83 | 1009.6 |
| 20260902040328 | 17 | 202 | 11.3 | 14.5 | 0.00 | 0.00 | 0.00 | 82 | 1009.9 |
| 20260902035827 | 17 | 193 | 11.3 | 12.9 | 0.00 | 0.00 | 0.00 | 81 | 1009.8 |
| 20260902035323 | 17 | 206 | 14.5 | 20.9 | 0.00 | 0.00 | 0.00 | 81 | 1009.7 |
| 20260902034821 | 17 | 204 | 8.0 | 9.7 | 0.00 | 0.00 | 0.00 | 80 | 1009.6 |
| 20260902034317 | 17 | 193 | 14.5 | 17.7 | 0.00 | 0.00 | 0.00 | 80 | 1009.7 |
| 20260902033814 | 17 | 190 | 16.1 | 20.9 | 0.00 | 0.00 | 0.00 | 80 | 1009.7 |
| 20260902033310 | 17 | 201 | 16.1 | 22.5 | 0.00 | 0.00 | 0.00 | 80 | 1009.6 |
| 20260902032809 | 17 | 196 | 9.7 | 12.9 | 0.00 | 0.00 | 0.00 | 80 | 1009.7 |
| 20260902032306 | 17 | 186 | 14.5 | 14.5 | 0.00 | 0.00 | 0.00 | 80 | 1009.5 |
| 20260902031804 | 17 | 208 | 16.1 | 22.5 | 0.00 | 0.00 | 0.00 | 79 | 1009.3 |
| 20260902031300 | 17 | 204 | 17.7 | 22.5 | 0.00 | 0.00 | 0.00 | 80 | 1009.3 |
| 20260902030755 | 17 | 203 | 4.8 | 4.8 | 0.00 | 0.00 | 0.00 | 80 | 1009.3 |
| 20260902030250 | 17 | 187 | 8.0 | 11.3 | 0.00 | 0.00 | 0.00 | 80 | 1009.4 |
| 20260902025748 | 17 | 196 | 14.5 | 22.5 | 0.00 | 0.00 | 0.00 | 80 | 1009.2 |
| 20260902025244 | 17 | 195 | 11.3 | 16.1 | 0.00 | 0.00 | 0.00 | 79 | 1009.3 |
| 20260902024738 | 17 | 179 | 6.4 | 9.7 | 0.00 | 0.00 | 0.00 | 79 | 1009.4 |
| 20260902024234 | 17 | 204 | 12.9 | 14.5 | 0.00 | 0.00 | 0.00 | 79 | 1009.1 |
| 20260902023730 | 18 | 196 | 12.9 | 20.9 | 0.00 | 0.00 | 0.00 | 79 | 1009.1 |
| 20260902023225 | 18 | 226 | 11.3 | 17.7 | 0.00 | 0.00 | 0.00 | 79 | 1009.3 |
| 20260902022724 | 18 | 212 | 6.4 | 11.3 | 0.00 | 0.00 | 0.00 | 79 | 1009.1 |
| 20260902022220 | 18 | 186 | 6.4 | 12.9 | 0.00 | 0.00 | 0.00 | 78 | 1009.3 |
| 20260902021715 | 18 | 199 | 14.5 | 14.5 | 0.00 | 0.00 | 0.00 | 78 | 1009.2 |
| 20260902021209 | 18 | 177 | 22.5 | 27.4 | 0.00 | 0.00 | 0.00 | 77 | 1009.1 |
| 20260902020706 | 18 | 181 | 16.1 | 20.9 | 0.00 | 0.00 | 0.00 | 78 | 1009.5 |
| 20260902020202 | 18 | 174 | 4.8 | 8.0 | 0.00 | 0.00 | 0.00 | 78 | 1009.2 |
| 20260902015657 | 18 | 193 | 11.3 | 14.5 | 0.00 | 0.00 | 0.00 | 77 | 1009.2 |
| 20260902015153 | 18 | 187 | 19.3 | 22.5 | 0.00 | 0.00 | 0.00 | 77 | 1009.3 |
| 20260902014649 | 18 | 186 | 8.0 | 11.3 | 0.00 | 0.00 | 0.00 | 78 | 1009.1 |
| 20260902014144 | 18 | 154 | 17.7 | 24.1 | 0.00 | 0.00 | 0.00 | 78 | 1009.2 |
| 20260902013643 | 18 | 232 | 16.1 | 20.9 | 0.00 | 0.00 | 0.00 | 78 | 1009.2 |
| 20260902013139 | 18 | 207 | 12.9 | 16.1 | 0.00 | 0.00 | 0.00 | 77 | 1009.3 |
| 20260902012635 | 18 | 199 | 11.3 | 17.7 | 0.00 | 0.00 | 0.00 | 77 | 1009.2 |
| 20260902012130 | 18 | 183 | 17.7 | 22.5 | 0.00 | 0.00 | 0.00 | 77 | 1009.2 |
| 20260902011626 | 18 | 170 | 14.5 | 16.1 | 0.00 | 0.00 | 0.00 | 77 | 1009.2 |
| 20260902011126 | 18 | 210 | 14.5 | 22.5 | 0.00 | 0.00 | 0.00 | 77 | 1009.5 |
| 20260902010625 | 18 | 145 | 22.5 | 27.4 | 0.00 | 0.00 | 0.00 | 76 | 1009.4 |
| 20260902010121 | 18 | 203 | 11.3 | 14.5 | 0.00 | 0.00 | 0.00 | 75 | 1009.3 |
| 20260902005619 | 18 | 221 | 11.3 | 16.1 | 0.00 | 0.00 | 0.00 | 75 | 1009.2 |
| 20260902005115 | 18 | 208 | 12.9 | 17.7 | 0.00 | 0.00 | 0.00 | 76 | 1009.1 |
| 20260902004614 | 19 | 175 | 12.9 | 17.7 | 0.00 | 0.00 | 0.00 | 75 | 1009.1 |
| 20260902004109 | 19 | 221 | 11.3 | 12.9 | 0.00 | 0.00 | 0.00 | 75 | 1009.4 |
| 20260902003604 | 20 | 167 | 17.7 | 20.9 | 0.00 | 0.00 | 0.00 | 73 | 1009.3 |
| 20260902003100 | 20 | 171 | 9.7 | 11.3 | 0.00 | 0.00 | 0.00 | 72 | 1009.3 |
| 20260902002555 | 20 | 188 | 11.3 | 14.5 | 0.00 | 0.00 | 0.00 | 73 | 1009.2 |
| 20260902002050 | 19 | 199 | 11.3 | 14.5 | 0.00 | 0.00 | 0.00 | 73 | 1009.4 |
| 20260902001545 | 19 | 195 | 14.5 | 17.7 | 0.00 | 0.00 | 0.00 | 74 | 1009.1 |
| 20260902001040 | 19 | 206 | 12.9 | 14.5 | 0.00 | 0.00 | 0.00 | 74 | 1009.3 |
| 20260902000534 | 19 | 190 | 17.7 | 22.5 | 0.00 | 0.00 | 0.00 | 74 | 1009.1 |
| 20260902000030 | 20 | 251 | 11.3 | 16.1 | 0.00 | 0.00 | 0.00 | 73 | 1009.2 |
| 20260901235524 | 20 | 220 | 14.5 | 16.1 | 0.00 | 0.00 | 0.00 | 72 | 1009.2 |
| 20260901235020 | 19 | 180 | 19.3 | 24.1 | 0.00 | 0.00 | 0.00 | 73 | 1009.4 |
| 20260901234518 | 19 | 189 | 11.3 | 16.1 | 0.00 | 0.00 | 0.00 | 73 | 1009.3 |
| 20260901234014 | 20 | 210 | 16.1 | 16.1 | 0.00 | 0.00 | 0.00 | 73 | 1009.2 |
| 20260901233509 | 20 | 235 | 3.2 | 4.8 | 0.00 | 0.00 | 0.00 | 72 | 1009.2 |
| 20260901233005 | 19 | 172 | 12.9 | 22.5 | 0.00 | 0.00 | 0.00 | 73 | 1009.3 |
| 20260901232500 | 19 | 201 | 8.0 | 9.7 | 0.00 | 0.00 | 0.00 | 73 | 1009.2 |
| 20260901231955 | 19 | 209 | 17.7 | 22.5 | 0.00 | 0.00 | 0.00 | 73 | 1009.2 |
| 20260901231451 | 20 | 163 | 11.3 | 16.1 | 0.00 | 0.00 | 0.00 | 73 | 1009.3 |
| 20260901230948 | 20 | 221 | 6.4 | 8.0 | 0.00 | 0.00 | 0.00 | 71 | 1009.3 |
| 20260901230447 | 20 | 241 | 8.0 | 14.5 | 0.00 | 0.00 | 0.00 | 70 | 1009.4 |
| 20260901225942 | 21 | 182 | 19.3 | 22.5 | 0.00 | 0.00 | 0.00 | 69 | 1009.2 |
| 20260901225442 | 20 | 229 | 17.7 | 22.5 | 0.00 | 0.00 | 0.00 | 70 | 1009.3 |
| 20260901224937 | 20 | 221 | 17.7 | 20.9 | 0.00 | 0.00 | 0.00 | 71 | 1009.3 |
| 20260901224433 | 19 | 204 | 11.3 | 14.5 | 0.00 | 0.00 | 0.00 | 72 | 1009.3 |
| 20260901223929 | 20 | 198 | 9.7 | 14.5 | 0.00 | 0.00 | 0.00 | 71 | 1009.3 |
| 20260901223424 | 21 | 193 | 25.7 | 32.2 | 0.00 | 0.00 | 0.00 | 68 | 1009.3 |
| 20260901222920 | 20 | 181 | 8.0 | 14.5 | 0.00 | 0.00 | 0.00 | 70 | 1009.0 |
| 20260901222416 | 20 | 208 | 4.8 | 9.7 | 0.00 | 0.00 | 0.00 | 70 | 1009.3 |
| 20260901221912 | 20 | 197 | 4.8 | 8.0 | 0.00 | 0.00 | 0.00 | 72 | 1009.3 |
| 20260901221408 | 19 | 218 | 9.7 | 12.9 | 0.00 | 0.00 | 0.00 | 74 | 1009.1 |
| 20260901220902 | 19 | 196 | 12.9 | 14.5 | 0.00 | 0.00 | 0.00 | 73 | 1009.4 |
| 20260901220401 | 19 | 186 | 11.3 | 14.5 | 0.00 | 0.00 | 0.00 | 72 | 1009.4 |
| 20260901215900 | 20 | 275 | 6.4 | 11.3 | 0.00 | 0.00 | 0.00 | 73 | 1009.4 |
| 20260901215359 | 20 | 212 | 8.0 | 14.5 | 0.00 | 0.00 | 0.00 | 72 | 1009.3 |
| 20260901214858 | 20 | 258 | 14.5 | 16.1 | 0.00 | 0.00 | 0.00 | 71 | 1009.6 |
| 20260901214357 | 20 | 210 | 8.0 | 11.3 | 0.00 | 0.00 | 0.00 | 69 | 1009.5 |
| 20260901213856 | 20 | 207 | 8.0 | 12.9 | 0.00 | 0.00 | 0.00 | 70 | 1009.5 |
| 20260901213352 | 20 | 200 | 9.7 | 11.3 | 0.00 | 0.00 | 0.00 | 70 | 1009.7 |
| 20260901212851 | 21 | 248 | 8.0 | 9.7 | 0.00 | 0.00 | 0.00 | 69 | 1009.5 |
| 20260901212347 | 20 | 222 | 8.0 | 9.7 | 0.00 | 0.00 | 0.00 | 69 | 1009.5 |
| 20260901211843 | 20 | 201 | 16.1 | 17.7 | 0.00 | 0.00 | 0.00 | 72 | 1009.6 |
| 20260901211338 | 20 | 217 | 11.3 | 14.5 | 0.00 | 0.00 | 0.00 | 73 | 1009.5 |
| 20260901210834 | 19 | 135 | 20.9 | 25.7 | 0.00 | 0.00 | 0.00 | 73 | 1009.5 |
| 20260901210329 | 20 | 216 | 11.3 | 14.5 | 0.00 | 0.00 | 0.00 | 72 | 1009.7 |
| 20260901205825 | 21 | 283 | 9.7 | 14.5 | 0.00 | 0.00 | 0.00 | 70 | 1009.7 |
| 20260901205320 | 20 | 222 | 17.7 | 22.5 | 0.00 | 0.00 | 0.00 | 71 | 1009.8 |
| 20260901204815 | 21 | 160 | 11.3 | 12.9 | 0.00 | 0.00 | 0.00 | 67 | 1009.5 |
| 20260901204312 | 21 | 228 | 8.0 | 9.7 | 0.00 | 0.00 | 0.00 | 69 | 1009.6 |
| 20260901203811 | 21 | 255 | 0.0 | 0.0 | 0.00 | 0.00 | 0.00 | 67 | 1009.6 |
| 20260901203306 | 21 | 176 | 4.8 | 8.0 | 0.00 | 0.00 | 0.00 | 68 | 1009.8 |
| 20260901202800 | 21 | 186 | 19.3 | 25.7 | 0.00 | 0.00 | 0.00 | 67 | 1009.6 |
| 20260901202255 | 21 | 261 | 6.4 | 8.0 | 0.00 | 0.00 | 0.00 | 68 | 1009.7 |
| 20260901201751 | 21 | 186 | 11.3 | 14.5 | 0.00 | 0.00 | 0.00 | 66 | 1009.7 |
| 20260901201250 | 21 | 217 | 11.3 | 16.1 | 0.00 | 0.00 | 0.00 | 68 | 1009.6 |
| 20260901200744 | 20 | 206 | 17.7 | 20.9 | 0.00 | 0.00 | 0.00 | 69 | 1009.8 |
| 20260901200240 | 20 | 221 | 11.3 | 16.1 | 0.00 | 0.00 | 0.00 | 71 | 1009.7 |
| 20260901195738 | 20 | 193 | 20.9 | 27.4 | 0.00 | 0.00 | 0.00 | 70 | 1009.9 |
| 20260901195232 | 21 | 253 | 8.0 | 11.3 | 0.00 | 0.00 | 0.00 | 69 | 1009.9 |
| 20260901194727 | 20 | 187 | 17.7 | 22.5 | 0.00 | 0.00 | 0.00 | 69 | 1009.9 |
| 20260901194217 | 20 | 212 | 9.7 | 16.1 | 0.00 | 0.00 | 0.00 | 71 | 1009.7 |
| 20260901193713 | 20 | 208 | 12.9 | 14.5 | 0.00 | 0.00 | 0.00 | 72 | 1009.7 |
| 20260901193212 | 20 | 185 | 19.3 | 24.1 | 0.00 | 0.00 | 0.00 | 71 | 1009.8 |